createdAt,value
2023-05-08T00:01:30.442Z,6.85
2023-05-08T00:04:22.438Z,6.82
2023-05-08T00:07:14.299Z,6.76
2023-05-08T00:10:07.220Z,6.71
2023-05-08T00:12:59.556Z,6.72
2023-05-08T00:15:51.579Z,6.75
2023-05-08T00:18:43.589Z,6.77
2023-05-08T00:21:35.575Z,6.78
2023-05-08T00:24:27.554Z,6.81
2023-05-08T00:27:19.512Z,6.90
2023-05-08T00:30:13.361Z,6.96
2023-05-08T00:33:05.661Z,7.00
2023-05-08T00:36:02.954Z,6.97
2023-05-08T00:38:55.024Z,6.93
2023-05-08T00:41:47.046Z,6.97
2023-05-08T00:44:40.179Z,6.97
2023-05-08T00:47:32.761Z,6.97
2023-05-08T00:50:24.842Z,6.93
2023-05-08T00:53:17.473Z,6.91
2023-05-08T00:56:13.626Z,6.87
2023-05-08T00:59:08.987Z,6.88
2023-05-08T01:02:01.645Z,6.85
2023-05-08T01:04:55.930Z,6.81
2023-05-08T01:07:48.027Z,6.81
2023-05-08T01:10:49.137Z,6.81
2023-05-08T01:13:53.224Z,6.77
2023-05-08T01:16:52.335Z,6.77
2023-05-08T01:20:01.785Z,6.72
2023-05-08T01:23:26.074Z,6.69
2023-05-08T01:26:51.919Z,6.65
2023-05-08T01:30:28.545Z,6.70
2023-05-08T01:33:28.011Z,6.79
2023-05-08T01:36:30.335Z,6.86
2023-05-08T01:39:36.670Z,6.92
2023-05-08T01:42:37.263Z,6.92
2023-05-08T01:45:36.776Z,6.98
2023-05-08T01:48:33.885Z,7.05
2023-05-08T01:51:26.559Z,7.07
2023-05-08T01:54:22.731Z,7.05
2023-05-08T01:57:16.039Z,7.03
2023-05-08T02:00:10.443Z,6.98
2023-05-08T02:03:03.662Z,6.96
2023-05-08T02:06:00.496Z,6.97
2023-05-08T02:08:54.482Z,6.92
2023-05-08T02:11:48.457Z,6.91
2023-05-08T02:14:41.281Z,6.83
2023-05-08T02:17:34.718Z,6.80
2023-05-08T02:20:28.865Z,6.75
2023-05-08T02:23:21.994Z,6.71
2023-05-08T02:26:16.233Z,6.64
2023-05-08T02:29:06.981Z,6.57
2023-05-08T02:32:01.641Z,6.46
2023-05-08T02:35:02.993Z,6.48
2023-05-08T02:37:57.482Z,6.50
2023-05-08T02:40:55.247Z,6.48
2023-05-08T02:43:47.854Z,6.46
2023-05-08T02:46:48.979Z,6.43
2023-05-08T02:49:50.148Z,6.40
2023-05-08T02:52:46.842Z,6.34
2023-05-08T02:55:45.091Z,6.36
2023-05-08T02:58:45.617Z,6.46
2023-05-08T03:01:45.452Z,6.42
2023-05-08T03:04:43.284Z,6.42
2023-05-08T03:07:37.517Z,6.41
2023-05-08T03:10:30.669Z,6.50
2023-05-08T03:13:24.026Z,6.46
2023-05-08T03:16:21.694Z,6.40
2023-05-08T03:19:23.620Z,6.41
2023-05-08T03:22:17.501Z,6.41
2023-05-08T03:25:14.019Z,6.41
2023-05-08T03:28:07.110Z,6.42
2023-05-08T03:31:00.737Z,6.41
2023-05-08T03:33:55.591Z,6.43
2023-05-08T03:36:49.289Z,6.51
2023-05-08T03:39:41.478Z,6.52
2023-05-08T03:42:33.703Z,6.51
2023-05-08T03:45:26.086Z,6.44
2023-05-08T03:48:20.126Z,6.48
2023-05-08T03:51:12.314Z,6.48
2023-05-08T03:54:04.286Z,6.42
2023-05-08T03:56:56.965Z,6.44
2023-05-08T04:00:01.462Z,6.36
2023-05-08T04:03:07.945Z,6.25
2023-05-08T04:06:08.100Z,6.21
2023-05-08T04:09:06.741Z,6.14
2023-05-08T04:12:06.247Z,6.12
2023-05-08T04:15:02.419Z,6.15
2023-05-08T04:17:58.460Z,6.15
2023-05-08T04:20:52.762Z,6.12
2023-05-08T04:23:43.634Z,6.17
2023-05-08T04:26:36.203Z,6.15
2023-05-08T04:29:28.308Z,6.17
2023-05-08T04:32:21.880Z,6.16
2023-05-08T04:35:14.843Z,6.15
2023-05-08T04:38:07.110Z,6.14
2023-05-08T04:40:59.167Z,6.16
2023-05-08T04:43:51.639Z,6.16
2023-05-08T04:46:43.592Z,6.19
2023-05-08T04:49:35.558Z,6.26
2023-05-08T04:52:27.690Z,6.32
2023-05-08T04:55:19.724Z,6.38
2023-05-08T04:58:12.857Z,6.47
2023-05-08T05:01:06.309Z,6.52
2023-05-08T05:03:58.570Z,6.60
2023-05-08T05:06:50.587Z,6.61
2023-05-08T05:09:42.598Z,6.59
2023-05-08T05:12:34.549Z,6.59
2023-05-08T05:15:26.503Z,6.50
2023-05-08T05:18:19.264Z,6.43
2023-05-08T05:21:11.900Z,6.48
2023-05-08T05:24:03.969Z,6.55
2023-05-08T05:26:56.044Z,6.55
2023-05-08T05:29:48.123Z,6.53
2023-05-08T05:32:40.206Z,6.48
2023-05-08T05:35:32.325Z,6.46
2023-05-08T05:38:05.359Z,6.44
2023-05-08T05:40:57.466Z,6.45
2023-05-08T05:43:49.656Z,6.40
2023-05-08T05:46:44.099Z,6.37
2023-05-08T05:49:26.476Z,6.47
2023-05-08T05:52:18.475Z,6.57
2023-05-08T05:55:11.588Z,6.57
2023-05-08T05:58:03.959Z,6.57
2023-05-08T06:00:55.917Z,6.48
2023-05-08T06:03:48.391Z,6.40
2023-05-08T06:06:40.489Z,6.45
2023-05-08T06:09:32.466Z,6.47
2023-05-08T06:12:24.650Z,6.48
2023-05-08T06:15:16.706Z,6.44
2023-05-08T06:18:09.035Z,6.38
2023-05-08T06:21:01.489Z,6.36
2023-05-08T06:23:53.507Z,6.34
2023-05-08T06:26:46.550Z,6.34
2023-05-08T06:29:38.518Z,6.35
2023-05-08T06:32:15.696Z,6.34
2023-05-08T06:35:08.947Z,6.38
2023-05-08T06:38:01.428Z,6.39
2023-05-08T06:40:54.013Z,6.40
2023-05-08T06:43:46.033Z,6.54
2023-05-08T06:46:38.109Z,7.56
2023-05-08T06:49:30.634Z,9.84
2023-05-08T06:52:24.475Z,9.60
2023-05-08T06:55:16.733Z,9.41
2023-05-08T06:58:02.191Z,9.28
2023-05-08T07:00:54.327Z,8.77
2023-05-08T07:03:46.362Z,8.40
2023-05-08T07:06:38.489Z,8.35
2023-05-08T07:09:30.530Z,8.33
2023-05-08T07:12:22.677Z,8.19
2023-05-08T07:15:25.446Z,8.11
2023-05-08T07:18:18.301Z,8.02
2023-05-08T07:21:10.623Z,8.07
2023-05-08T07:24:02.784Z,8.17
2023-05-08T07:26:54.851Z,8.20
2023-05-08T07:29:46.893Z,8.25
2023-05-08T07:32:39.687Z,8.42
2023-05-08T07:35:31.837Z,8.70
2023-05-08T07:38:23.781Z,8.84
2023-05-08T07:41:16.134Z,9.15
2023-05-08T07:44:08.436Z,9.35
2023-05-08T07:47:00.534Z,9.45
2023-05-08T07:49:52.653Z,9.55
2023-05-08T07:52:44.617Z,9.67
2023-05-08T07:55:36.700Z,9.69
2023-05-08T07:58:28.748Z,9.72
2023-05-08T08:01:21.060Z,9.92
2023-05-08T08:04:15.307Z,10.11
2023-05-08T08:07:07.584Z,10.24
2023-05-08T08:09:59.557Z,10.03
2023-05-08T08:12:51.668Z,10.17
2023-05-08T08:15:44.691Z,10.41
2023-05-08T08:18:38.086Z,10.39
2023-05-08T08:21:31.068Z,10.41
2023-05-08T08:24:23.985Z,10.52
2023-05-08T08:27:16.030Z,10.72
2023-05-08T08:30:17.733Z,10.94
2023-05-08T08:32:53.075Z,11.07
2023-05-08T08:35:45.130Z,11.01
2023-05-08T08:38:37.114Z,11.15
2023-05-08T08:41:29.173Z,11.30
2023-05-08T08:44:21.345Z,11.47
2023-05-08T08:47:15.854Z,11.46
2023-05-08T08:50:14.258Z,11.71
2023-05-08T08:53:12.289Z,11.92
2023-05-08T08:56:06.546Z,12.27
2023-05-08T08:59:00.205Z,12.20
2023-05-08T09:01:56.150Z,12.23
2023-05-08T09:04:50.606Z,12.01
2023-05-08T09:07:43.869Z,11.63
2023-05-08T09:10:37.422Z,11.60
2023-05-08T09:13:12.443Z,11.73
2023-05-08T09:16:05.283Z,12.09
2023-05-08T09:18:57.497Z,12.09
2023-05-08T09:21:49.904Z,12.22
2023-05-08T09:25:02.206Z,12.48
2023-05-08T09:27:54.157Z,12.80
2023-05-08T09:30:53.625Z,12.82
2023-05-08T09:33:47.582Z,12.77
2023-05-08T09:36:40.616Z,12.69
2023-05-08T09:39:32.683Z,12.62
2023-05-08T09:42:25.296Z,12.64
2023-05-08T09:45:30.261Z,12.75
2023-05-08T09:48:42.538Z,12.79
2023-05-08T09:51:34.633Z,13.02
2023-05-08T09:54:26.712Z,13.20
2023-05-08T09:57:18.721Z,13.49
2023-05-08T10:00:14.022Z,13.65
2023-05-08T10:03:06.499Z,13.53
2023-05-08T10:05:41.086Z,13.34
2023-05-08T10:08:33.066Z,13.25
2023-05-08T10:11:25.022Z,13.28
2023-05-08T10:14:16.988Z,13.35
2023-05-08T10:17:12.964Z,13.34
2023-05-08T10:20:09.500Z,13.35
2023-05-08T10:23:02.414Z,13.38
2023-05-08T10:25:57.469Z,13.43
2023-05-08T10:28:58.090Z,13.55
2023-05-08T10:31:55.341Z,13.59
2023-05-08T10:34:51.059Z,13.26
2023-05-08T10:37:44.256Z,12.89
2023-05-08T10:40:36.321Z,12.62
2023-05-08T10:43:30.247Z,12.57
2023-05-08T10:46:30.374Z,12.48
2023-05-08T10:49:32.744Z,12.73
2023-05-08T10:52:31.416Z,12.87
2023-05-08T10:55:30.551Z,12.83
2023-05-08T10:58:34.460Z,12.55
2023-05-08T11:01:27.410Z,12.49
2023-05-08T11:04:26.085Z,12.51
2023-05-08T11:07:56.613Z,12.62
2023-05-08T11:11:05.343Z,12.79
2023-05-08T11:14:10.896Z,12.98
2023-05-08T11:17:12.359Z,13.23
2023-05-08T11:20:06.992Z,13.20
2023-05-08T11:23:18.966Z,13.09
2023-05-08T11:26:16.517Z,13.16
2023-05-08T11:29:18.495Z,13.35
2023-05-08T11:32:10.606Z,13.56
2023-05-08T11:35:02.747Z,13.68
2023-05-08T11:38:15.499Z,13.79
2023-05-08T11:41:08.993Z,13.68
2023-05-08T11:44:21.951Z,13.44
2023-05-08T11:47:19.825Z,13.61
2023-05-08T11:50:14.277Z,13.63
2023-05-08T11:53:06.770Z,13.65
2023-05-08T11:55:59.278Z,13.54
2023-05-08T11:59:02.476Z,13.57
2023-05-08T12:04:32.321Z,13.60
2023-05-08T12:07:24.465Z,13.65
2023-05-08T12:10:17.623Z,13.61
2023-05-08T12:13:19.816Z,13.59
2023-05-08T12:16:14.102Z,13.69
2023-05-08T12:19:10.055Z,13.73
2023-05-08T12:22:02.811Z,13.79
2023-05-08T12:24:54.879Z,13.80
2023-05-08T12:27:36.810Z,13.58
2023-05-08T12:30:28.947Z,13.56
2023-05-08T12:33:21.345Z,13.69
2023-05-08T12:36:13.348Z,13.52
2023-05-08T12:38:45.354Z,13.63
2023-05-08T12:41:43.724Z,13.95
2023-05-08T12:44:35.802Z,14.22
2023-05-08T12:47:28.046Z,14.19
2023-05-08T12:50:22.225Z,14.19
2023-05-08T12:53:16.137Z,14.38
2023-05-08T12:56:08.804Z,14.37
2023-05-08T12:59:02.766Z,14.36
2023-05-08T13:01:54.835Z,14.29
2023-05-08T13:04:47.700Z,14.28
2023-05-08T13:07:39.826Z,14.21
2023-05-08T13:10:46.195Z,14.04
2023-05-08T13:13:24.173Z,14.12
2023-05-08T13:16:16.350Z,13.97
2023-05-08T13:19:08.378Z,13.90
2023-05-08T13:22:00.322Z,13.95
2023-05-08T13:24:52.294Z,14.05
2023-05-08T13:27:44.302Z,14.07
2023-05-08T13:30:37.017Z,14.15
2023-05-08T13:33:29.015Z,14.15
2023-05-08T13:36:21.436Z,14.14
2023-05-08T13:39:13.528Z,14.23
2023-05-08T13:42:05.756Z,14.17
2023-05-08T13:44:57.740Z,13.94
2023-05-08T13:47:51.000Z,13.71
2023-05-08T13:50:43.077Z,13.52
2023-05-08T13:53:35.135Z,13.36
2023-05-08T14:19:04.798Z,13.26
2023-05-08T14:21:56.809Z,13.31
2023-05-08T14:24:48.856Z,13.26
2023-05-08T14:27:40.858Z,13.26
2023-05-08T14:30:32.820Z,13.13
2023-05-08T14:33:24.906Z,13.04
2023-05-08T14:36:17.094Z,13.15
2023-05-08T14:39:09.751Z,13.22
2023-05-08T14:44:58.887Z,13.10
2023-05-08T14:47:51.072Z,12.93
2023-05-08T14:50:43.226Z,12.83
2023-05-08T14:53:35.370Z,12.83
2023-05-08T14:56:28.923Z,12.84
2023-05-08T14:59:20.483Z,12.79
2023-05-08T15:02:08.844Z,12.90
2023-05-08T15:05:01.080Z,12.91
2023-05-08T15:07:53.196Z,12.86
2023-05-08T15:10:45.219Z,12.81
2023-05-08T15:13:37.287Z,12.76
2023-05-08T15:16:29.321Z,12.67
2023-05-08T15:19:21.312Z,12.62
2023-05-08T15:22:13.302Z,12.64
2023-05-08T15:25:05.875Z,12.72
2023-05-08T15:28:00.725Z,12.78
2023-05-08T15:30:53.259Z,12.78
2023-05-08T15:33:46.036Z,12.75
2023-05-08T15:36:38.149Z,12.60
2023-05-08T15:39:30.629Z,12.52
2023-05-08T15:42:23.008Z,12.51
2023-05-08T15:45:16.141Z,12.43
2023-05-08T15:48:08.876Z,12.33
2023-05-08T15:51:00.910Z,12.42
2023-05-08T15:53:52.973Z,12.58
2023-05-08T15:56:47.237Z,12.66
2023-05-08T15:59:38.201Z,12.61
2023-05-08T16:02:30.243Z,12.61
2023-05-08T16:05:22.565Z,12.58
2023-05-08T16:08:14.538Z,12.44
2023-05-08T16:11:06.590Z,12.23
2023-05-08T16:13:58.920Z,12.04
2023-05-08T16:16:50.868Z,11.85
2023-05-08T16:19:42.827Z,11.63
2023-05-08T16:22:34.765Z,11.47
2023-05-08T16:25:11.051Z,11.40
2023-05-08T16:28:03.439Z,11.48
2023-05-08T16:30:55.420Z,11.62
2023-05-08T16:33:47.476Z,11.71
2023-05-08T16:36:39.593Z,11.83
2023-05-08T16:39:31.636Z,11.92
2023-05-08T16:42:23.620Z,11.95
2023-05-08T16:45:15.881Z,12.01
2023-05-08T16:48:08.082Z,12.05
2023-05-08T16:51:00.208Z,11.94
2023-05-08T16:53:52.182Z,11.88
2023-05-08T16:56:39.310Z,11.80
2023-05-08T16:59:32.180Z,11.68
2023-05-08T17:02:24.205Z,11.51
2023-05-08T17:05:05.165Z,11.37
2023-05-08T17:07:57.180Z,11.26
2023-05-08T17:10:41.285Z,11.18
2023-05-08T17:13:33.334Z,11.11
2023-05-08T17:16:25.377Z,11.09
2023-05-08T17:19:17.348Z,11.07
2023-05-08T17:22:09.217Z,11.03
2023-05-08T17:25:01.160Z,11.04
2023-05-08T17:27:53.194Z,11.09
2023-05-08T17:30:46.376Z,11.16
2023-05-08T17:33:38.500Z,11.22
2023-05-08T17:36:30.519Z,11.18
2023-05-08T17:39:22.766Z,11.10
2023-05-08T17:42:14.722Z,11.03
2023-05-08T17:45:08.046Z,10.96
2023-05-08T17:48:00.252Z,10.90
2023-05-08T17:50:52.248Z,10.83
2023-05-08T17:53:44.533Z,10.78
2023-05-08T17:56:36.675Z,10.71
2023-05-08T17:59:28.701Z,10.64
2023-05-08T18:02:20.715Z,10.58
2023-05-08T18:05:12.930Z,10.53
2023-05-08T18:08:04.999Z,10.48
2023-05-08T18:10:57.081Z,10.46
2023-05-08T18:13:49.778Z,10.43
2023-05-08T18:16:41.762Z,10.37
2023-05-08T18:19:33.970Z,10.31
2023-05-08T18:22:26.251Z,10.24
2023-05-08T18:25:18.303Z,10.18
2023-05-08T18:28:10.416Z,10.16
2023-05-08T18:31:02.467Z,10.18
2023-05-08T18:33:54.547Z,10.24
2023-05-08T18:36:46.846Z,10.28
2023-05-08T18:39:38.876Z,10.31
2023-05-08T18:42:30.880Z,10.34
2023-05-08T18:45:23.436Z,10.38
2023-05-08T18:48:15.386Z,10.39
2023-05-08T18:51:07.534Z,10.39
2023-05-08T18:54:00.148Z,10.41
2023-05-08T18:56:35.120Z,10.41
2023-05-08T18:59:27.203Z,10.40
2023-05-08T19:02:04.341Z,10.37
2023-05-08T19:04:56.394Z,10.35
2023-05-08T19:07:48.379Z,10.31
2023-05-08T19:10:41.003Z,10.24
2023-05-08T19:13:33.206Z,10.16
2023-05-08T19:16:25.401Z,10.13
2023-05-08T19:19:17.574Z,10.11
2023-05-08T19:22:10.164Z,10.10
2023-05-08T19:25:02.102Z,10.07
2023-05-08T19:27:36.873Z,10.05
2023-05-08T19:30:28.857Z,10.03
2023-05-08T19:33:21.030Z,10.01
2023-05-08T19:36:13.076Z,9.97
2023-05-08T19:39:05.142Z,9.93
2023-05-08T19:41:57.439Z,9.90
2023-05-08T19:44:49.690Z,9.88
2023-05-08T19:47:41.714Z,9.84
2023-05-08T19:50:33.683Z,9.81
2023-05-08T19:53:25.681Z,9.79
2023-05-08T19:56:17.831Z,9.72
2023-05-08T19:59:09.800Z,9.66
2023-05-08T20:02:01.776Z,9.58
2023-05-08T20:05:04.266Z,9.51
2023-05-08T20:07:54.618Z,9.44
2023-05-08T20:10:31.575Z,9.40
2023-05-08T20:13:23.674Z,9.36
2023-05-08T20:16:16.062Z,9.33
2023-05-08T20:19:08.291Z,9.29
2023-05-08T20:22:00.336Z,9.23
2023-05-08T20:24:52.320Z,9.19
2023-05-08T20:27:44.302Z,9.14
2023-05-08T20:30:36.352Z,9.11
2023-05-08T20:33:28.489Z,9.09
2023-05-08T20:36:20.515Z,9.04
2023-05-08T20:39:12.837Z,9.01
2023-05-08T20:42:05.084Z,9.00
2023-05-08T20:44:57.003Z,8.97
2023-05-08T20:47:48.974Z,8.95
2023-05-08T20:50:41.062Z,8.91
2023-05-08T20:53:33.079Z,8.88
2023-05-08T20:56:25.077Z,8.84
2023-05-08T20:59:18.742Z,8.80
2023-05-08T21:02:11.639Z,8.78
2023-05-08T21:05:03.842Z,8.76
2023-05-08T21:07:59.927Z,8.73
2023-05-08T21:10:53.024Z,8.68
2023-05-08T21:13:49.170Z,8.63
2023-05-08T21:16:41.257Z,8.59
2023-05-08T21:19:18.257Z,8.56
2023-05-08T21:22:10.439Z,8.53
2023-05-08T21:25:02.396Z,8.51
2023-05-08T21:27:55.370Z,8.50
2023-05-08T21:30:47.856Z,8.49
2023-05-08T21:33:39.835Z,8.47
2023-05-08T21:36:32.136Z,8.47
2023-05-08T21:39:24.093Z,8.44
2023-05-08T21:42:16.067Z,8.43
2023-05-08T21:45:09.335Z,8.42
2023-05-08T21:48:01.569Z,8.42
2023-05-08T21:50:53.534Z,8.40
2023-05-08T21:53:45.513Z,8.37
2023-05-08T21:56:37.548Z,8.34
2023-05-08T21:59:29.484Z,8.29
2023-05-08T22:02:21.613Z,8.25
2023-05-08T22:05:14.489Z,8.22
2023-05-08T22:08:07.261Z,8.20
2023-05-08T22:10:59.278Z,8.16
2023-05-08T22:13:51.231Z,8.13
2023-05-08T22:16:43.338Z,8.10
2023-05-08T22:19:35.415Z,8.06
2023-05-08T22:22:27.540Z,8.02
2023-05-08T22:25:21.579Z,7.97
2023-05-08T22:28:13.623Z,7.94
2023-05-08T22:31:06.876Z,7.91
2023-05-08T22:33:59.722Z,7.86
2023-05-08T22:36:51.664Z,7.83
2023-05-08T22:39:43.784Z,7.82
2023-05-08T22:42:35.977Z,7.78
2023-05-08T22:45:28.375Z,7.74
2023-05-08T22:48:21.518Z,7.74
2023-05-08T22:50:53.455Z,7.73
2023-05-08T22:53:45.812Z,7.67
2023-05-08T22:56:38.215Z,7.67
2023-05-08T22:59:30.272Z,7.61
2023-05-08T23:02:22.356Z,7.57
2023-05-08T23:05:14.495Z,7.57
2023-05-08T23:08:07.161Z,7.58
2023-05-08T23:10:59.124Z,7.59
2023-05-08T23:13:51.085Z,7.57
2023-05-08T23:16:43.118Z,7.58
2023-05-08T23:19:35.115Z,7.56
2023-05-08T23:22:28.570Z,7.51
2023-05-08T23:25:20.706Z,7.49
2023-05-08T23:28:12.695Z,7.46
2023-05-08T23:31:05.045Z,7.41
2023-05-08T23:33:57.214Z,7.36
2023-05-08T23:36:49.203Z,7.35
2023-05-08T23:39:42.008Z,7.30
2023-05-08T23:42:33.889Z,7.27
2023-05-08T23:45:25.898Z,7.25
2023-05-08T23:48:17.902Z,7.24
2023-05-08T23:51:10.024Z,7.23
2023-05-08T23:54:02.178Z,7.21
2023-05-08T23:56:54.129Z,7.18
2023-05-08T23:59:46.059Z,7.16
